Portada
METAR-TAF:

METAR-TAF

Aeropuertos :

Islamabad, Pakistán

Aeropuerto Internacional Benazir Bhutto

latitud: 33-37N, longitud: 073-06E, altitud: 507 m

Observación

El informe se hizo hace 12 minutos, a las 04:00 UTC
Viento 6 kt del suroeste
Temperatura 27°C
Humedad 79%
Presión 1010 hPa
Visibilidad: 2500 m
calima

METAR: OPRN 250400Z 23006KT 2500 HZ NSC 27/23 Q1010.6/29.84

Hora: 09:12 (04:12 UTC)

Pronóstico

El informe se hizo hace 6 horas y 42 minutos, a las 21:30 UTC
Pronóstico válido del 25 a las 00 UTC al 26 a las 06 UTC
Viento 10 kt del sur-suroeste
Visibilidad: 4000 m
Escasas nubes a una altura de 3000 ft
Nubes dispersas a una altura de 4000 ft
calima
Temporalmente
del 25 a las 09 UTC al 25 a las 12 UTC
Viento 10 kt del sureste con ráfagas de 20 kt
Visibilidad: 5000 m
Nubes dispersas a una altura de 3000 ft
calima

TAF: OPRN 242130Z 2500/2606 21010KT 4000 HZ FEW030 SCT040 TEMPO 2509/2512 13010G20KT 5000 HZ SCT030

Observaciones y pronósticos meteorológicos de más de 4000 aeropuertos (mensajes METAR y TAF).

Los puntos amarillos y rojos representan las estaciones disponibles.

Ponga el ratón en el punto deseado para ver el nombre de la estación.

Haga clic para ver las observaciones y los pronósticos meteorológicos.

Para cambiar el mapa : haga clic en los botones verdes con una cruz de color negro para hacer un zoom, en el botón verde con un guión para alejar o en las flechas verdes para mapas adyacentes.


METAR-TAF: